Time;durP1;ratioP1;P1;durP2;ratioP2;P2;SDS_P1;SDS_P2;PMS_P1;PMS_P2;Temp;Humidity;BMP_temperature;BMP_pressure;BME280_temperature;BME280_humidity;BME280_pressure;Samples;Min_cycle;Max_cycle;Signal;HPM_P1;HPM_P2
2023/03/17 00:01:53;;;;;;;6.93;1.38;;;30.80;57.60;;;;;;5039182;28;20479;-61
2023/03/17 00:04:23;;;;;;;5.78;1.00;;;31.00;57.00;;;;;;5031623;28;20017;-61
2023/03/17 00:06:50;;;;;;;8.07;1.08;;;31.20;57.00;;;;;;5024631;28;20041;-61
2023/03/17 00:09:19;;;;;;;3.75;0.98;;;31.20;54.50;;;;;;5020361;28;20022;-61
2023/03/17 00:11:47;;;;;;;11.80;0.93;;;31.30;54.90;;;;;;5028779;28;20171;-62
2023/03/17 00:14:15;;;;;;;5.65;1.48;;;31.40;53.40;;;;;;5030236;28;20037;-61
2023/03/17 00:16:51;;;;;;;2.53;1.10;;;31.50;53.80;;;;;;5030379;28;20120;-61
2023/03/17 00:19:31;;;;;;;4.88;1.20;;;31.80;53.50;;;;;;5025818;28;20028;-61
2023/03/17 00:21:59;;;;;;;6.47;1.35;;;31.90;53.20;;;;;;5025647;28;20498;-66
2023/03/17 00:24:28;;;;;;;6.47;1.48;;;32.10;53.60;;;;;;5029602;28;20025;-61
2023/03/17 00:26:55;;;;;;;3.53;0.70;;;32.10;53.80;;;;;;5026515;28;20541;-61
2023/03/17 00:29:24;;;;;;;3.42;1.23;;;32.10;52.90;;;;;;5027839;28;20426;-61
2023/03/17 00:31:52;;;;;;;3.22;1.35;;;32.10;52.60;;;;;;5030328;28;20032;-60
2023/03/17 00:34:20;;;;;;;5.00;0.70;;;32.10;52.80;;;;;;5037836;28;20131;-61
2023/03/17 00:36:51;;;;;;;3.88;0.85;;;32.30;51.80;;;;;;5032867;28;20038;-60
2023/03/17 00:39:19;;;;;;;4.07;0.73;;;32.40;49.80;;;;;;5026204;28;20104;-60
2023/03/17 00:41:47;;;;;;;3.55;0.60;;;32.30;49.20;;;;;;5036452;28;20033;-61
2023/03/17 00:44:14;;;;;;;4.28;0.70;;;32.30;50.60;;;;;;5033750;28;20504;-61
2023/03/17 00:46:42;;;;;;;15.45;1.00;;;32.40;50.70;;;;;;5037985;28;20041;-61
2023/03/17 00:49:22;;;;;;;7.20;1.52;;;32.20;51.50;;;;;;5033516;28;20060;-61
2023/03/17 00:51:50;;;;;;;6.72;0.60;;;32.40;51.90;;;;;;5035825;28;20494;-61
2023/03/17 00:54:19;;;;;;;10.77;1.20;;;32.70;53.50;;;;;;5037589;28;20060;-61
2023/03/17 00:56:48;;;;;;;8.90;1.02;;;33.00;50.60;;;;;;5039865;28;20263;-60
2023/03/17 00:59:28;;;;;;;2.63;0.95;;;33.10;50.20;;;;;;5031226;28;20024;-62
2023/03/17 01:01:56;;;;;;;7.22;0.95;;;33.30;50.30;;;;;;5035878;28;20326;-61
2023/03/17 01:04:24;;;;;;;4.20;0.70;;;33.40;48.30;;;;;;5030091;28;20571;-61
2023/03/17 01:06:52;;;;;;;2.60;0.80;;;33.20;48.20;;;;;;5034203;28;20071;-60
2023/03/17 01:09:24;;;;;;;4.18;0.73;;;33.10;49.80;;;;;;5027182;28;20022;-61
2023/03/17 01:11:53;;;;;;;8.15;1.00;;;33.00;49.70;;;;;;5026719;28;20090;-61
2023/03/17 01:14:21;;;;;;;9.00;0.70;;;32.90;49.70;;;;;;5029015;28;20115;-63
2023/03/17 01:16:49;;;;;;;3.63;0.63;;;33.00;49.70;;;;;;5032100;28;20033;-61
2023/03/17 01:19:16;;;;;;;5.70;0.75;;;33.10;48.80;;;;;;5025751;28;20514;-61
2023/03/17 01:21:45;;;;;;;3.13;0.85;;;33.20;49.90;;;;;;5028941;28;20057;-61
2023/03/17 01:24:13;;;;;;;1.27;0.60;;;33.20;47.90;;;;;;5035840;28;20036;-61
2023/03/17 01:26:41;;;;;;;5.07;0.98;;;33.40;46.70;;;;;;5028540;28;20042;-65
2023/03/17 01:29:08;;;;;;;6.28;0.60;;;33.50;46.50;;;;;;5029059;28;20025;-64
2023/03/17 01:31:36;;;;;;;5.88;1.80;;;33.40;46.60;;;;;;5029099;28;20033;-61
2023/03/17 01:34:04;;;;;;;4.13;0.70;;;33.40;47.50;;;;;;5028356;28;20022;-61
2023/03/17 01:36:33;;;;;;;2.45;0.50;;;33.50;46.90;;;;;;5027513;28;20048;-61
2023/03/17 01:39:00;;;;;;;4.25;0.60;;;33.60;46.00;;;;;;5029005;28;20116;-60
2023/03/17 01:41:28;;;;;;;4.97;0.68;;;33.40;46.30;;;;;;5025649;28;20083;-61
2023/03/17 01:43:56;;;;;;;2.50;0.57;;;33.40;46.70;;;;;;5033541;28;20026;-62
2023/03/17 01:46:30;;;;;;;2.00;0.70;;;33.50;45.40;;;;;;5034597;28;20087;-61
2023/03/17 01:49:11;;;;;;;4.65;0.80;;;33.40;48.10;;;;;;5024758;28;20029;-62
2023/03/17 01:51:57;;;;;;;1.98;0.45;;;33.50;46.20;;;;;;5031771;28;20030;-61
2023/03/17 01:54:47;;;;;;;3.53;0.88;;;33.50;45.30;;;;;;5030232;28;20489;-61
2023/03/17 01:57:23;;;;;;;1.88;0.70;;;33.50;46.50;;;;;;5029243;28;20103;-61
2023/03/17 01:59:58;;;;;;;2.17;1.00;;;33.70;46.90;;;;;;5031334;28;20219;-61
2023/03/17 02:02:30;;;;;;;3.58;1.23;;;33.70;46.90;;;;;;5029047;28;20078;-62
2023/03/17 02:04:58;;;;;;;3.63;0.70;;;33.70;45.90;;;;;;5027991;28;20021;-61
2023/03/17 02:07:27;;;;;;;1.80;0.60;;;33.80;46.80;;;;;;5027228;28;20037;-62
2023/03/17 02:09:56;;;;;;;1.90;0.40;;;33.90;46.40;;;;;;5036869;28;20024;-61
2023/03/17 02:12:26;;;;;;;7.35;1.30;;;33.70;45.60;;;;;;5040012;28;20493;-62
2023/03/17 02:14:54;;;;;;;3.42;0.77;;;33.70;46.90;;;;;;5042262;28;20037;-61
2023/03/17 02:17:24;;;;;;;3.03;0.88;;;33.80;46.60;;;;;;5040536;28;20082;-61
2023/03/17 02:19:52;;;;;;;2.90;0.80;;;34.00;48.80;;;;;;5031052;28;20442;-61
2023/03/17 02:22:20;;;;;;;4.00;1.30;;;34.20;48.20;;;;;;5046160;28;20092;-62
2023/03/17 02:24:51;;;;;;;3.50;0.90;;;34.10;47.40;;;;;;5036559;28;20032;-61
2023/03/17 02:27:34;;;;;;;1.83;0.77;;;34.10;46.90;;;;;;5024665;28;20052;-62
2023/03/17 02:30:05;;;;;;;4.28;0.88;;;34.20;48.40;;;;;;5046373;28;20108;-62
2023/03/17 02:32:36;;;;;;;3.20;0.80;;;34.10;45.30;;;;;;5032053;28;20549;-62
2023/03/17 02:35:05;;;;;;;3.10;1.08;;;33.90;46.90;;;;;;5030463;28;20036;-61
2023/03/17 02:37:33;;;;;;;4.95;0.90;;;34.10;45.40;;;;;;5031739;28;20030;-61
2023/03/17 02:40:01;;;;;;;5.60;0.93;;;34.10;45.90;;;;;;5032270;28;20071;-65
2023/03/17 02:42:29;;;;;;;2.28;0.90;;;34.30;45.60;;;;;;5027179;28;20024;-66
2023/03/17 02:44:56;;;;;;;5.47;0.98;;;34.50;45.00;;;;;;5037146;28;20029;-65
2023/03/17 02:47:24;;;;;;;3.38;1.10;;;34.30;44.70;;;;;;5032033;28;20040;-66
2023/03/17 02:49:52;;;;;;;3.72;1.40;;;34.40;45.80;;;;;;5028657;28;20029;-66
2023/03/17 02:52:19;;;;;;;3.33;1.10;;;34.50;45.30;;;;;;5033256;28;20460;-66
2023/03/17 02:54:47;;;;;;;3.15;0.82;;;34.50;46.10;;;;;;5028966;28;20025;-66
2023/03/17 02:57:14;;;;;;;6.28;1.88;;;34.60;44.50;;;;;;5030138;28;20045;-66
2023/03/17 02:59:42;;;;;;;6.70;0.93;;;34.80;45.50;;;;;;5035936;28;20037;-65
2023/03/17 03:02:10;;;;;;;7.55;1.90;;;34.80;44.30;;;;;;5029506;28;20048;-66
2023/03/17 03:04:37;;;;;;;3.33;2.10;;;34.70;44.10;;;;;;5033420;28;20115;-65
2023/03/17 03:07:05;;;;;;;5.43;1.70;;;34.50;44.40;;;;;;5031757;28;20053;-66
2023/03/17 03:09:33;;;;;;;5.75;1.83;;;34.20;52.00;;;;;;5032143;28;20018;-66
2023/03/17 03:12:00;;;;;;;11.05;2.13;;;33.10;55.30;;;;;;5029771;28;20064;-66
2023/03/17 03:14:31;;;;;;;6.88;1.90;;;32.70;57.10;;;;;;5033634;28;20017;-66
2023/03/17 03:16:58;;;;;;;9.10;1.90;;;32.20;57.90;;;;;;5039729;28;20029;-66
2023/03/17 03:19:26;;;;;;;9.75;1.88;;;31.80;58.60;;;;;;5031352;28;20044;-65
2023/03/17 03:21:54;;;;;;;10.20;2.08;;;31.60;59.60;;;;;;5045720;28;20021;-66
2023/03/17 03:24:21;;;;;;;6.68;2.08;;;31.40;59.60;;;;;;5030179;28;20021;-67
2023/03/17 03:26:49;;;;;;;7.88;2.03;;;31.20;61.10;;;;;;5028514;28;20042;-66
2023/03/17 03:29:16;;;;;;;8.48;2.15;;;30.90;61.40;;;;;;5028394;28;20034;-66
2023/03/17 03:31:44;;;;;;;8.98;1.73;;;30.90;61.90;;;;;;5032759;28;20025;-67
2023/03/17 03:34:11;;;;;;;7.72;2.03;;;30.90;62.40;;;;;;5024827;28;20040;-66
2023/03/17 03:36:39;;;;;;;7.95;1.83;;;30.70;62.80;;;;;;5025575;28;20033;-67
2023/03/17 03:39:07;;;;;;;14.63;1.75;;;30.50;62.90;;;;;;5021032;28;20033;-66
2023/03/17 03:41:35;;;;;;;9.30;1.77;;;30.30;63.60;;;;;;5024605;28;20386;-66
2023/03/17 03:44:03;;;;;;;7.00;1.58;;;30.10;63.40;;;;;;5027097;28;20025;-65
2023/03/17 03:46:30;;;;;;;11.88;2.53;;;30.30;64.40;;;;;;5022529;28;20123;-65
2023/03/17 03:48:58;;;;;;;12.55;2.35;;;30.40;64.70;;;;;;5023932;28;20167;-66
2023/03/17 03:51:25;;;;;;;7.28;1.58;;;30.60;65.00;;;;;;5029081;28;20561;-66
2023/03/17 03:53:53;;;;;;;6.82;1.80;;;30.80;64.60;;;;;;5028266;28;20171;-68
2023/03/17 03:56:20;;;;;;;9.63;1.77;;;30.50;65.00;;;;;;5025803;28;20046;-65
2023/03/17 03:58:48;;;;;;;6.18;1.52;;;30.30;66.30;;;;;;5020243;28;20021;-66
2023/03/17 04:01:15;;;;;;;5.75;1.70;;;30.20;66.60;;;;;;5024846;28;20195;-66
2023/03/17 04:03:45;;;;;;;12.63;1.98;;;29.90;68.70;;;;;;5024679;28;20014;-65
2023/03/17 04:06:13;;;;;;;7.28;2.10;;;29.60;70.70;;;;;;5026754;28;20041;-65
2023/03/17 04:08:41;;;;;;;8.70;2.00;;;29.80;72.50;;;;;;5031194;28;20491;-66
2023/03/17 04:11:08;;;;;;;9.55;2.35;;;29.90;74.30;;;;;;5030885;28;20110;-66
2023/03/17 04:13:37;;;;;;;11.93;2.55;;;29.60;79.00;;;;;;5028348;28;20025;-64
2023/03/17 04:16:05;;;;;;;9.63;2.40;;;29.40;83.50;;;;;;5030763;28;20029;-65
2023/03/17 04:18:32;;;;;;;7.40;1.95;;;29.40;87.50;;;;;;5030737;28;20049;-66
2023/03/17 04:21:00;;;;;;;6.50;2.03;;;29.50;88.90;;;;;;5030951;28;20029;-67
2023/03/17 04:23:27;;;;;;;16.65;2.72;;;29.60;89.30;;;;;;5030873;28;20017;-66
2023/03/17 04:25:55;;;;;;;9.80;2.25;;;29.40;87.50;;;;;;5029134;28;20037;-65
2023/03/17 04:28:22;;;;;;;8.93;1.75;;;29.30;90.20;;;;;;5025562;28;20028;-65
2023/03/17 04:30:50;;;;;;;8.40;2.78;;;29.30;91.20;;;;;;5029632;28;20372;-65
2023/03/17 04:33:19;;;;;;;9.48;2.25;;;29.20;90.10;;;;;;5027606;28;20017;-65
2023/03/17 04:35:46;;;;;;;7.25;1.55;;;29.10;89.50;;;;;;5027532;28;20028;-66
2023/03/17 04:38:14;;;;;;;3.95;1.90;;;29.10;90.40;;;;;;5028330;28;20033;-66
2023/03/17 04:40:41;;;;;;;7.97;1.60;;;29.10;91.40;;;;;;5029271;28;20490;-66
2023/03/17 04:43:09;;;;;;;13.52;2.83;;;29.20;92.30;;;;;;5029737;28;20034;-67
2023/03/17 04:45:37;;;;;;;9.20;2.10;;;29.00;92.20;;;;;;5025275;28;20508;-67
2023/03/17 04:48:05;;;;;;;6.63;1.60;;;28.80;93.20;;;;;;5041346;28;20386;-66
2023/03/17 04:50:32;;;;;;;8.65;2.42;;;28.60;94.00;;;;;;5032018;28;20029;-66
2023/03/17 04:53:00;;;;;;;14.93;2.65;;;28.70;94.90;;;;;;5032449;28;20033;-65
2023/03/17 04:55:27;;;;;;;7.82;2.63;;;28.70;94.40;;;;;;5035518;28;20046;-66
2023/03/17 04:57:55;;;;;;;6.90;2.40;;;28.70;94.30;;;;;;5038340;28;20075;-65
2023/03/17 05:00:22;;;;;;;7.13;1.98;;;28.60;94.30;;;;;;5032040;28;20382;-64
2023/03/17 05:02:50;;;;;;;7.93;1.60;;;28.60;95.00;;;;;;5037762;28;20029;-65
2023/03/17 05:05:17;;;;;;;9.35;2.75;;;28.60;95.00;;;;;;5032652;28;20042;-64
2023/03/17 05:07:45;;;;;;;5.80;1.70;;;28.60;96.20;;;;;;5028276;28;20043;-64
2023/03/17 05:10:12;;;;;;;6.72;1.65;;;28.60;95.50;;;;;;5045668;28;20028;-65
2023/03/17 05:12:40;;;;;;;7.65;1.90;;;28.50;96.00;;;;;;5036518;28;20033;-65
2023/03/17 05:15:08;;;;;;;12.52;2.05;;;28.50;97.00;;;;;;5034760;28;20441;-65
2023/03/17 05:17:36;;;;;;;6.70;1.70;;;28.50;96.90;;;;;;5033781;28;20044;-65
2023/03/17 05:20:03;;;;;;;5.03;1.73;;;28.30;97.70;;;;;;5033761;28;20063;-66
2023/03/17 05:22:31;;;;;;;10.98;2.30;;;27.90;99.50;;;;;;5032211;28;20033;-65
2023/03/17 05:24:58;;;;;;;6.63;1.90;;;27.70;99.90;;;;;;5030746;28;20025;-65
2023/03/17 05:27:26;;;;;;;8.98;2.35;;;27.60;99.90;;;;;;5040060;28;20485;-65
2023/03/17 05:29:53;;;;;;;11.60;1.67;;;27.70;99.90;;;;;;5033295;28;20108;-66
2023/03/17 05:32:21;;;;;;;7.63;2.03;;;27.40;99.90;;;;;;5026772;28;20494;-65
2023/03/17 05:34:48;;;;;;;8.13;2.08;;;27.30;99.90;;;;;;5032393;28;20055;-66
2023/03/17 05:37:16;;;;;;;7.85;2.05;;;27.20;99.90;;;;;;5027113;28;20532;-65
2023/03/17 05:39:43;;;;;;;6.38;1.63;;;27.30;99.90;;;;;;5030224;28;20037;-65
2023/03/17 05:42:11;;;;;;;11.35;2.17;;;27.30;99.90;;;;;;5030574;28;20036;-65
2023/03/17 05:44:39;;;;;;;4.85;1.80;;;27.40;99.90;;;;;;5034187;28;20554;-65
2023/03/17 05:47:07;;;;;;;8.18;1.85;;;27.50;99.90;;;;;;5040316;28;20095;-69
2023/03/17 05:49:34;;;;;;;8.82;1.95;;;27.50;99.90;;;;;;5043698;28;20104;-67
2023/03/17 05:52:02;;;;;;;6.93;1.40;;;27.40;99.90;;;;;;5032827;28;20029;-65
2023/03/17 05:54:29;;;;;;;7.90;1.75;;;27.40;99.90;;;;;;5030714;28;20028;-65
2023/03/17 05:57:00;;;;;;;5.57;1.85;;;27.20;99.90;;;;;;5029293;28;20053;-66
2023/03/17 05:59:27;;;;;;;10.95;2.25;;;27.00;99.90;;;;;;5025431;28;20029;-65
2023/03/17 06:01:55;;;;;;;7.88;1.55;;;27.00;99.90;;;;;;5026454;28;20029;-63
2023/03/17 06:04:23;;;;;;;8.73;2.05;;;27.00;99.90;;;;;;5026031;28;20469;-67
2023/03/17 06:06:50;;;;;;;8.95;1.77;;;26.90;99.90;;;;;;5025701;28;20037;-65
2023/03/17 06:09:18;;;;;;;7.68;2.17;;;26.90;99.90;;;;;;5017631;28;20032;-65
2023/03/17 06:11:45;;;;;;;7.93;1.88;;;26.90;99.90;;;;;;5038521;28;20533;-65
2023/03/17 06:14:13;;;;;;;6.55;1.58;;;26.70;99.90;;;;;;5018840;28;20018;-67
2023/03/17 06:16:40;;;;;;;7.57;1.90;;;26.60;99.90;;;;;;5031415;28;20095;-68
2023/03/17 06:19:08;;;;;;;6.93;1.80;;;26.70;99.90;;;;;;5033621;28;20026;-68
2023/03/17 06:21:35;;;;;;;6.32;1.90;;;26.60;99.90;;;;;;5030501;28;20113;-69
2023/03/17 06:24:03;;;;;;;5.57;2.58;;;26.40;99.90;;;;;;5028210;28;20060;-68
2023/03/17 06:26:30;;;;;;;7.55;1.92;;;26.30;99.90;;;;;;5037883;28;20073;-68
2023/03/17 06:28:58;;;;;;;7.43;1.73;;;26.10;99.90;;;;;;5032809;28;20018;-70
2023/03/17 06:31:26;;;;;;;8.57;2.45;;;26.00;99.90;;;;;;5026070;28;20033;-63
2023/03/17 06:33:54;;;;;;;8.90;2.53;;;25.90;99.90;;;;;;5026054;28;20040;-64
2023/03/17 06:36:21;;;;;;;7.82;1.55;;;25.80;99.90;;;;;;5032274;28;20087;-65
2023/03/17 06:38:48;;;;;;;9.10;2.35;;;25.90;99.90;;;;;;5034355;28;20045;-65
2023/03/17 06:41:16;;;;;;;5.40;1.27;;;26.00;99.90;;;;;;5038733;28;20154;-65
2023/03/17 06:43:44;;;;;;;9.02;2.33;;;26.20;99.90;;;;;;5036504;28;20036;-67
2023/03/17 06:46:11;;;;;;;10.10;1.92;;;26.20;99.90;;;;;;5037947;28;20049;-66
2023/03/17 06:48:39;;;;;;;8.20;2.03;;;26.20;99.90;;;;;;5037222;28;20035;-64
2023/03/17 06:51:07;;;;;;;7.05;2.13;;;26.10;99.90;;;;;;5038916;28;20064;-64
2023/03/17 06:53:35;;;;;;;6.57;2.00;;;26.00;99.90;;;;;;5027986;28;20029;-64
2023/03/17 06:56:03;;;;;;;10.40;1.83;;;26.00;99.90;;;;;;5044459;28;20087;-64
2023/03/17 06:58:32;;;;;;;6.88;2.40;;;25.90;99.90;;;;;;5043948;28;20063;-65
2023/03/17 07:00:59;;;;;;;8.63;2.00;;;25.80;99.90;;;;;;5030831;28;20025;-66
2023/03/17 07:03:27;;;;;;;9.02;2.10;;;25.90;99.90;;;;;;5029474;28;20556;-65
2023/03/17 07:05:55;;;;;;;7.53;2.22;;;25.80;99.90;;;;;;5029405;28;20091;-65
2023/03/17 07:08:22;;;;;;;9.45;1.98;;;25.80;99.90;;;;;;5041871;28;20052;-64
2023/03/17 07:10:50;;;;;;;11.30;1.58;;;25.70;99.90;;;;;;5039875;28;20021;-65
2023/03/17 07:13:18;;;;;;;5.93;1.38;;;25.60;99.90;;;;;;5036559;28;21662;-64
2023/03/17 07:15:45;;;;;;;9.43;2.33;;;25.50;99.90;;;;;;5044100;28;20520;-65
2023/03/17 07:18:13;;;;;;;6.13;1.83;;;25.40;99.90;;;;;;5028783;28;20028;-65
2023/03/17 07:20:41;;;;;;;15.90;2.75;;;25.40;99.90;;;;;;5029474;28;20033;-64
2023/03/17 07:23:15;;;;;;;10.80;2.17;;;25.40;99.90;;;;;;5031747;28;20021;-64
2023/03/17 07:25:44;;;;;;;8.85;2.10;;;25.40;99.90;;;;;;5029817;28;20034;-66
2023/03/17 07:28:11;;;;;;;8.18;2.00;;;25.30;99.90;;;;;;5032885;28;20025;-66
2023/03/17 07:30:42;;;;;;;12.13;3.00;;;25.30;99.90;;;;;;5032574;28;20068;-66
2023/03/17 07:33:10;;;;;;;7.47;2.25;;;25.30;99.90;;;;;;5031427;28;20033;-64
2023/03/17 07:35:37;;;;;;;7.10;1.98;;;25.30;99.90;;;;;;5030330;28;20068;-64
2023/03/17 07:38:05;;;;;;;7.38;2.22;;;25.20;99.90;;;;;;5033409;28;20064;-64
2023/03/17 07:40:33;;;;;;;8.90;2.80;;;25.20;99.90;;;;;;5032893;28;20079;-64
2023/03/17 07:43:00;;;;;;;9.20;1.80;;;25.10;99.90;;;;;;5041765;28;20041;-64
2023/03/17 07:45:28;;;;;;;7.85;2.47;;;25.00;99.90;;;;;;5039679;28;20022;-64
2023/03/17 07:47:55;;;;;;;5.03;1.88;;;25.00;99.90;;;;;;5031617;28;20037;-64
2023/03/17 07:50:23;;;;;;;9.52;2.53;;;24.90;99.90;;;;;;5033731;28;20394;-64
2023/03/17 07:52:50;;;;;;;8.00;2.03;;;24.90;99.90;;;;;;5036243;28;20514;-65
2023/03/17 07:55:17;;;;;;;9.55;2.78;;;24.80;99.90;;;;;;5028654;28;20057;-65
2023/03/17 07:57:45;;;;;;;10.80;2.15;;;24.80;99.90;;;;;;5031458;28;20112;-65
2023/03/17 08:00:13;;;;;;;6.43;2.63;;;24.80;99.90;;;;;;5032211;28;20503;-64
2023/03/17 08:02:40;;;;;;;7.47;2.15;;;24.80;99.90;;;;;;5030655;28;20028;-63
2023/03/17 08:05:08;;;;;;;10.23;1.88;;;24.70;99.90;;;;;;5033206;28;20037;-65
2023/03/17 08:07:37;;;;;;;6.75;2.17;;;24.60;99.90;;;;;;5033784;28;20041;-63
2023/03/17 08:10:08;;;;;;;11.77;2.22;;;24.60;99.90;;;;;;5036555;28;20125;-63
2023/03/17 08:12:36;;;;;;;11.93;2.20;;;24.60;99.90;;;;;;5040564;28;20033;-64
2023/03/17 08:15:04;;;;;;;7.50;2.35;;;24.50;99.90;;;;;;5031266;28;20055;-63
2023/03/17 08:17:31;;;;;;;10.20;2.13;;;24.40;99.90;;;;;;5031503;28;20093;-64
2023/03/17 08:19:59;;;;;;;6.43;1.88;;;24.30;99.90;;;;;;5034360;28;20025;-65
2023/03/17 08:22:26;;;;;;;6.95;2.00;;;24.20;99.90;;;;;;5038571;28;20032;-65
2023/03/17 08:24:54;;;;;;;6.63;2.00;;;24.10;99.90;;;;;;5035719;28;20364;-65
2023/03/17 08:27:22;;;;;;;8.80;2.22;;;24.00;99.90;;;;;;5033156;28;20041;-64
2023/03/17 08:29:50;;;;;;;7.03;2.58;;;23.90;99.90;;;;;;5033505;28;20488;-67
2023/03/17 08:32:17;;;;;;;8.57;2.10;;;23.90;99.90;;;;;;5027116;28;20025;-74
2023/03/17 08:34:47;;;;;;;5.45;2.03;;;23.80;99.90;;;;;;5034768;28;20036;-63
2023/03/17 08:37:14;;;;;;;3.63;1.60;;;23.60;99.90;;;;;;5031843;28;20119;-63
2023/03/17 08:39:42;;;;;;;8.65;1.98;;;23.60;99.90;;;;;;5043175;28;20025;-65
2023/03/17 08:42:09;;;;;;;8.70;2.08;;;23.50;99.90;;;;;;5027014;28;20486;-65
2023/03/17 08:44:37;;;;;;;14.48;3.00;;;23.40;99.90;;;;;;5041078;28;20029;-65
2023/03/17 08:47:04;;;;;;;4.95;2.22;;;23.30;99.90;;;;;;5027984;28;20119;-65
2023/03/17 08:49:34;;;;;;;10.65;2.30;;;23.30;99.90;;;;;;5026040;28;20033;-63
2023/03/17 08:52:02;;;;;;;10.30;2.30;;;23.30;99.90;;;;;;5029829;28;20026;-63
2023/03/17 08:54:30;;;;;;;12.00;2.40;;;23.30;99.90;;;;;;5024986;28;20048;-63
2023/03/17 08:57:00;;;;;;;7.53;2.70;;;23.30;99.90;;;;;;5037149;28;20108;-63
2023/03/17 08:59:28;;;;;;;12.27;2.58;;;23.30;99.90;;;;;;5035812;28;20083;-63
2023/03/17 09:01:55;;;;;;;12.55;2.72;;;23.20;99.90;;;;;;5036546;28;20026;-63
2023/03/17 09:04:23;;;;;;;9.13;2.10;;;23.20;99.90;;;;;;5034768;28;20078;-64
2023/03/17 09:06:50;;;;;;;7.60;2.40;;;23.20;99.90;;;;;;5042213;28;20044;-64
2023/03/17 09:09:18;;;;;;;8.40;2.25;;;23.20;99.90;;;;;;5042184;28;20017;-64
2023/03/17 09:11:45;;;;;;;8.00;2.63;;;23.20;99.90;;;;;;5036512;28;20025;-64
2023/03/17 09:14:13;;;;;;;8.63;2.42;;;23.30;99.90;;;;;;5028998;28;20041;-64
2023/03/17 09:16:41;;;;;;;10.95;3.03;;;23.30;99.90;;;;;;5034345;28;20036;-64
2023/03/17 09:19:08;;;;;;;7.80;1.98;;;23.40;99.90;;;;;;5032964;28;20108;-64
2023/03/17 09:21:36;;;;;;;8.48;2.05;;;23.40;99.90;;;;;;5035846;28;20061;-64
2023/03/17 09:24:04;;;;;;;6.30;2.50;;;23.40;99.90;;;;;;5029244;28;20378;-64
2023/03/17 09:26:31;;;;;;;7.38;1.80;;;23.40;99.90;;;;;;5039650;28;20044;-63
2023/03/17 09:28:58;;;;;;;10.10;2.40;;;23.40;99.90;;;;;;5032072;28;20022;-65
2023/03/17 09:31:26;;;;;;;8.00;2.20;;;23.40;99.90;;;;;;5036507;28;20079;-63
2023/03/17 09:33:54;;;;;;;6.80;1.95;;;23.40;99.90;;;;;;5025608;28;20026;-65
2023/03/17 09:36:22;;;;;;;6.03;1.80;;;23.40;99.90;;;;;;5030676;28;20025;-64
2023/03/17 09:38:50;;;;;;;10.30;1.98;;;23.30;99.90;;;;;;5035572;28;20025;-67
2023/03/17 09:41:20;;;;;;;10.88;1.77;;;23.40;99.90;;;;;;5036426;28;20061;-67
2023/03/17 09:44:28;;;;;;;6.40;1.40;;;23.30;99.90;;;;;;5022325;28;20682;-67
2023/03/17 09:47:03;;;;;;;6.35;1.90;;;23.30;99.90;;;;;;5026328;28;20033;-66
2023/03/17 09:49:38;;;;;;;6.93;1.80;;;23.30;99.90;;;;;;5027274;28;20033;-69
2023/03/17 09:52:10;;;;;;;12.13;2.25;;;23.30;99.90;;;;;;5029756;28;20021;-65
2023/03/17 09:54:39;;;;;;;18.75;3.63;;;23.30;99.90;;;;;;5032178;28;20799;-65
2023/03/17 09:57:24;;;;;;;6.28;2.42;;;23.30;99.90;;;;;;5033083;28;20033;-65
2023/03/17 10:00:05;;;;;;;7.57;1.98;;;23.20;99.90;;;;;;5043052;28;20528;-65
2023/03/17 10:02:36;;;;;;;6.28;1.77;;;23.10;99.90;;;;;;5027244;28;20600;-65
2023/03/17 10:05:25;;;;;;;8.57;2.33;;;23.10;99.90;;;;;;5030863;28;20021;-68
2023/03/17 10:07:55;;;;;;;7.20;2.63;;;23.10;99.90;;;;;;5029367;28;20852;-69
2023/03/17 10:11:09;;;;;;;9.27;2.25;;;23.10;99.90;;;;;;5016080;28;20359;-67
2023/03/17 10:13:44;;;;;;;5.72;2.25;;;23.20;99.90;;;;;;5011446;28;20149;-66
2023/03/17 10:16:21;;;;;;;12.80;3.45;;;23.20;99.90;;;;;;5027545;28;20033;-65
2023/03/17 10:18:57;;;;;;;8.90;2.80;;;23.30;99.90;;;;;;5027070;28;20032;-65
2023/03/17 10:21:34;;;;;;;8.95;2.90;;;23.30;99.90;;;;;;5038256;28;20489;-66
2023/03/17 10:24:04;;;;;;;6.65;2.03;;;23.30;99.90;;;;;;5027320;28;20028;-67
2023/03/17 10:26:40;;;;;;;7.82;3.05;;;23.40;99.90;;;;;;5021033;28;20041;-66
2023/03/17 10:29:16;;;;;;;8.60;1.85;;;23.40;99.90;;;;;;5028807;28;20593;-67
2023/03/17 10:31:44;;;;;;;12.43;2.08;;;23.40;99.90;;;;;;5030060;28;20526;-68
2023/03/17 10:34:17;;;;;;;11.43;3.15;;;23.40;99.90;;;;;;5026340;28;20029;-66
2023/03/17 10:36:49;;;;;;;13.35;2.35;;;23.40;99.90;;;;;;5024393;28;20032;-64
2023/03/17 10:39:22;;;;;;;9.77;1.92;;;23.40;99.90;;;;;;5032936;28;20056;-66
2023/03/17 10:41:57;;;;;;;10.02;2.83;;;23.50;99.90;;;;;;5030621;28;20014;-65
2023/03/17 10:44:39;;;;;;;8.43;1.92;;;23.50;99.90;;;;;;5032544;28;20024;-68
2023/03/17 10:47:20;;;;;;;7.75;2.50;;;23.50;99.90;;;;;;5027756;28;20048;-66
2023/03/17 10:49:48;;;;;;;7.57;2.03;;;23.50;99.90;;;;;;5028646;28;20029;-65
2023/03/17 10:52:31;;;;;;;8.32;2.17;;;23.40;99.90;;;;;;5041585;28;20025;-64
2023/03/17 10:55:05;;;;;;;7.53;1.60;;;23.40;99.90;;;;;;5037990;28;20512;-66
2023/03/17 10:57:36;;;;;;;7.40;2.13;;;23.40;99.90;;;;;;5035589;28;20375;-66
2023/03/17 11:00:12;;;;;;;8.00;2.70;;;23.50;99.90;;;;;;5039573;28;20033;-65
2023/03/17 11:02:46;;;;;;;9.30;3.40;;;23.50;99.90;;;;;;5017830;28;20021;-66
2023/03/17 11:05:28;;;;;;;8.10;1.80;;;23.50;99.90;;;;;;5030095;28;20494;-66
2023/03/17 11:08:18;;;;;;;8.40;1.90;;;23.40;99.90;;;;;;5027544;28;20041;-66
2023/03/17 11:10:53;;;;;;;10.13;2.78;;;23.40;99.90;;;;;;5033353;28;20026;-65
2023/03/17 11:13:20;;;;;;;10.50;2.08;;;23.40;99.90;;;;;;5037507;28;20029;-67
2023/03/17 11:16:27;;;;;;;8.55;2.40;;;23.40;99.90;;;;;;5028356;28;20037;-67
2023/03/17 11:18:58;;;;;;;7.95;1.92;;;23.40;99.90;;;;;;5017695;28;20392;-66
2023/03/17 11:21:46;;;;;;;13.20;3.38;;;23.30;99.90;;;;;;5032087;28;20031;-66
2023/03/17 11:24:40;;;;;;;7.00;2.05;;;23.30;99.90;;;;;;5034612;28;20029;-66
2023/03/17 11:27:07;;;;;;;9.85;2.75;;;23.30;99.90;;;;;;5032491;28;20041;-64
2023/03/17 11:29:51;;;;;;;10.27;2.80;;;23.30;99.90;;;;;;5034021;28;20526;-66
2023/03/17 11:32:42;;;;;;;9.15;2.60;;;23.30;99.90;;;;;;5028882;28;20544;-66
2023/03/17 11:35:23;;;;;;;8.65;1.85;;;23.30;99.90;;;;;;5021390;28;20036;-65
2023/03/17 11:38:17;;;;;;;10.07;3.40;;;23.30;99.90;;;;;;5039604;28;20057;-66
2023/03/17 11:41:07;;;;;;;11.85;3.72;;;23.20;99.90;;;;;;5028016;28;20035;-65
2023/03/17 11:43:38;;;;;;;11.63;3.35;;;23.10;99.90;;;;;;5020475;28;20043;-65
2023/03/17 11:46:15;;;;;;;11.15;2.90;;;23.10;99.90;;;;;;5026533;28;20506;-64
2023/03/17 11:49:07;;;;;;;11.90;3.05;;;23.00;99.90;;;;;;5021786;28;20025;-63
2023/03/17 11:52:02;;;;;;;11.75;3.78;;;22.90;99.90;;;;;;5022224;28;20529;-65
2023/03/17 11:54:29;;;;;;;12.85;3.13;;;22.80;99.90;;;;;;5028644;28;20109;-65
2023/03/17 11:57:04;;;;;;;7.65;3.10;;;22.80;99.90;;;;;;5031868;28;20474;-66
2023/03/17 11:59:54;;;;;;;8.52;2.30;;;22.60;99.90;;;;;;5020748;28;20554;-66
2023/03/17 12:02:36;;;;;;;9.15;2.30;;;22.60;99.90;;;;;;5025909;28;20033;-67
2023/03/17 12:05:14;;;;;;;7.05;2.05;;;22.50;99.90;;;;;;5023557;28;20433;-65
2023/03/17 12:07:51;;;;;;;7.47;3.13;;;22.50;99.90;;;;;;5029435;28;20034;-64
2023/03/17 12:10:49;;;;;;;9.23;2.22;;;22.40;99.90;;;;;;5027321;28;20048;-65
2023/03/17 12:13:30;;;;;;;5.53;2.35;;;22.30;99.90;;;;;;5024700;28;20093;-62
2023/03/17 12:16:03;;;;;;;11.20;3.25;;;22.20;99.90;;;;;;5022755;28;20026;-63
2023/03/17 12:18:34;;;;;;;10.90;3.53;;;22.10;99.90;;;;;;5025294;28;20022;-64
2023/03/17 12:21:24;;;;;;;10.38;2.45;;;22.00;99.90;;;;;;5027304;28;20419;-64
2023/03/17 12:24:11;;;;;;;10.45;2.65;;;21.90;99.90;;;;;;5028441;28;20029;-63
2023/03/17 12:26:59;;;;;;;9.98;2.70;;;21.80;99.90;;;;;;5029924;28;20037;-62
2023/03/17 12:29:42;;;;;;;14.32;4.78;;;21.70;99.90;;;;;;5026533;28;20486;-63
2023/03/17 12:32:28;;;;;;;16.63;4.30;;;21.60;99.90;;;;;;5025409;28;20040;-62
2023/03/17 12:35:27;;;;;;;15.32;4.85;;;21.50;99.90;;;;;;5029243;28;20389;-64
2023/03/17 12:37:58;;;;;;;18.30;4.28;;;21.40;99.90;;;;;;5026422;28;20091;-65
2023/03/17 12:40:44;;;;;;;13.63;4.32;;;21.30;99.90;;;;;;5037011;28;20025;-62
2023/03/17 12:43:31;;;;;;;18.55;4.82;;;21.20;99.90;;;;;;5040987;28;20029;-62
2023/03/17 12:46:36;;;;;;;16.00;5.03;;;21.20;99.90;;;;;;5027226;28;20022;-65
2023/03/17 12:49:03;;;;;;;;;;;21.10;99.90;;;;;;5021827;28;20083;-63
2023/03/17 12:51:58;;;;;;;14.43;3.45;;;21.10;99.90;;;;;;5031754;28;20028;-63
2023/03/17 12:54:29;;;;;;;12.82;4.45;;;21.10;99.90;;;;;;5030201;28;20027;-65
2023/03/17 12:57:21;;;;;;;12.43;3.55;;;21.10;99.90;;;;;;5033109;28;20450;-65
2023/03/17 12:59:57;;;;;;;10.57;4.35;;;21.10;99.90;;;;;;5029326;28;20030;-62
2023/03/17 13:02:27;;;;;;;11.65;4.22;;;21.20;99.90;;;;;;5029579;28;20047;-63
2023/03/17 13:04:59;;;;;;;12.50;4.47;;;21.20;99.90;;;;;;5030016;28;20045;-62
2023/03/17 13:07:31;;;;;;;15.00;4.15;;;21.20;99.90;;;;;;5026868;28;20049;-65